Amsterdam, Netherlands
Current Conditions -  °F | °C
As of 11:55 PM on Thursday 20 Nov 2014 (Local Time) from EHAM Reporting Station
Overcast Overcast  
Wind Chill: 40°   Ceiling: 800
Heat Index: 43°   Visibility: 4mi
Dew Point: 41°   Wind: 5mph
Humidity: 93%   Direction: 110°ESE
Pressure: 30.3"   Gusts: NA
Location:  52.35°N, 4.9°E
Report Text: EHAM 202255Z 11004KT 080V160 7000 OVC008 06/05 Q1026 TEMPO8000
Loading
Personal Weather Stations






























Interactive Weather Map New forecast layout! Learn more

10-Day Weather Forecast

Advertisements
Track Severe Weather on mobile